Flag for China

Past Weather in Weihai, Shandong, China — Yesterday and Last 2 Weeks

Currently: 36 °F. Fog. (Weather station: Dalian Airport, China). See more current weather

Past Weather in Weihai — Graph

°F

Weihai Temperature Yesterday

Maximum temperature yesterday: 37 °F (at 12:30 pm)
Minimum temperature yesterday: 21 °F (at 6:30 am)
Average temperature yesterday: 28 °F

High & Low Weather Summary for the Past Weeks

 TemperatureHumidityPressure
High45 °F (Jan 24, 11:00 am)100% (Jan 21, 1:30 am)30.54 "Hg (Jan 21, 1:30 am)
Low5 °F (Jan 9, 10:00 pm)23% (Jan 18, 9:30 pm)29.77 "Hg (Jan 13, 1:30 am)
Average27 °F66%30.23 "Hg
* Reported Jan 9 5:00 pm — Jan 24 5:00 pm, Weihai. Weather by CustomWeather, © 2021

Note: Actual official high and low records may vary slightly from our data, if they occured in-between our weather recording intervals... More about our weather records

Weihai Weather History for the Previous 24 Hours

Scroll right to see more
 ConditionsComfort  
Time TempWeatherWind HumidityBarometerVisibility
5:00 pm
Sun, Jan 24
37 °FHaze.8 mph70%30.30 "Hg2 mi
4:30 pm41 °FHaze.3 mph61%30.33 "Hg3 mi
4:00 pm41 °FHaze.1 mph53%30.30 "Hg3 mi
3:30 pm43 °FHaze.1 mph46%30.30 "Hg3 mi
3:00 pm43 °FHaze.3 mph46%30.30 "Hg3 mi
2:30 pm43 °FHaze.3 mph57%30.30 "Hg3 mi
2:00 pm45 °FHaze.3 mph53%30.30 "Hg3 mi
1:30 pm43 °FHaze.6 mph57%30.30 "Hg3 mi
1:00 pm43 °FHaze.6 mph53%30.30 "Hg3 mi
12:30 pm45 °FHaze.6 mph49%30.30 "Hg3 mi
12:00 pm45 °FHaze.6 mph46%30.30 "Hg3 mi
11:30 am45 °FHaze.6 mph46%30.33 "Hg3 mi
11:00 am45 °FHaze.3 mph49%30.33 "Hg3 mi
10:30 am41 °FHaze.1 mph49%30.36 "Hg3 mi
10:00 am39 °FFog.No wind61%30.36 "Hg2 mi
9:30 am37 °FFog.No wind70%30.33 "Hg2 mi
8:30 am28 °FIce fog.1 mph86%30.33 "Hg2 mi
8:00 am23 °FIce fog.1 mph86%30.30 "Hg2 mi
7:30 am23 °FIce fog.3 mph93%30.30 "Hg2 mi
7:00 am19 °FIce fog.1 mph93%30.30 "Hg2 mi
6:30 am21 °FIce fog.No wind93%30.30 "Hg2 mi
6:00 am21 °FIce fog.1 mph93%30.30 "Hg2 mi
5:30 am21 °FIce fog.1 mph93%30.27 "Hg2 mi
5:00 am23 °FIce fog.1 mph86%30.27 "Hg2 mi
4:30 am21 °FIce fog.3 mph93%30.27 "Hg2 mi
4:00 am23 °FIce fog.No wind86%30.27 "Hg2 mi
3:30 am23 °FIce fog.No wind86%30.27 "Hg2 mi
3:00 am21 °FIce fog.3 mph93%30.27 "Hg2 mi
2:30 am21 °FIce fog.6 mph86%30.27 "Hg2 mi
2:00 am23 °FIce fog.3 mph86%30.27 "Hg2 mi
1:30 am23 °FIce fog.6 mph86%30.27 "Hg2 mi
1:00 am25 °FIce fog.1 mph80%30.27 "Hg2 mi
12:30 am23 °FIce fog.3 mph86%30.27 "Hg2 mi
12:00 am23 °FIce fog.6 mph86%30.27 "Hg2 mi
11:30 pm
Sat, Jan 23
23 °FIce fog.No wind86%30.27 "Hg1 mi
11:00 pm23 °FIce fog.3 mph86%30.27 "Hg2 mi
10:30 pm27 °FIce fog.3 mph80%30.24 "Hg2 mi
10:00 pm23 °FIce fog.1 mph86%30.24 "Hg2 mi
9:30 pm23 °FIce fog.3 mph80%30.24 "Hg2 mi
9:00 pm25 °FIce fog.1 mph86%30.21 "Hg2 mi
8:30 pm23 °FHaze.3 mph86%30.24 "Hg2 mi
8:00 pm27 °FHaze.3 mph80%30.24 "Hg2 mi
7:30 pm27 °FHaze.1 mph80%30.21 "Hg2 mi
7:00 pm28 °FHaze.1 mph80%30.21 "Hg2 mi
6:30 pm28 °FHaze.1 mph74%30.21 "Hg2 mi
6:00 pm30 °FHaze.1 mph64%30.21 "Hg3 mi
Weather by CustomWeather, © 2021

See weather overview